Weather at Tokmok Airport

Public forecast

Using degrees Celsius for public forecast. Weather courtesy of forecast.io.

Closest aviation weather report (METAR) to Tokmok Airport

Closest report is Manas International Airport, 40.2 nm (74.5 km) WNW. Retrieved 2021/01/16 22:30 UTC (5 minutes ago):

UCFM 162230Z 15004MPS 080V170 4200 BR FU NSC M02/M07 Q1016 R08/1///95 NOSIG

Closest aviation forecast (TAF) to Tokmok Airport

Closest forecast is Manas International Airport, 40.2 nm (74.5 km) WNW. Retrieved 2021/01/16 18:00 UTC (5 hours ago):

TAF UCFM 161640Z 1618/1718 14003G08MPS 1500 BR SCT010 TEMPO 1618/1624 VRB01MPS 0400 FZFG FU FEW002 SCT005 TEMPO 1700/1704 VRB01MPS 0400 FZFG FEW002 SCT005 BECMG 1704/1706 26003G08MPS 6000 NSW